Impacts TAF Board
For situational awareness. Not to be used for flight planning purposes.
IDs:

KLGA - New York/La Guardia, NY, US

Issued at 1940 UTC 23 Oct 2021
Updated at 2012 UTC 23 Oct 2021
Potential Impact None Slight Moderate High
Time1951Z 23/21Z 23/22Z 23/23Z 24/00Z 24/01Z 24/02Z 24/03Z 24/04Z 24/05Z 24/06Z 24/07Z 24/08Z 24/09Z>>
Type OBS PRVL PRVL PRVL PRVL PRVL PRVL PRVL PRVL PRVL PRVL PRVL PRVL PRVL
VIS 10 >6 >6 >6 >6 >6 >6 >6 >6 >6 >6 >6 >6 >6
CIG 140 45 45 45 45 45 60 60 60 -- -- -- -- --
Cover BKN BKN BKN BKN BKN BKN BKN BKN BKN SCT SCT SCT SCT SCT
FltCat VFR VFR VFR VFR VFR VFR VFR VFR VFR VFR VFR VFR VFR VFR
WX -- VCSH VCSH VCSH VCSH VCSH -- -- -- -- -- -- -- --
WDir 310 270 270 270 270 270 290 290 290 300 300 300 300 300
WSpd 5 7 7 7 7 7 6 6 6 6 6 6 6 6
WGst -- -- -- -- -- -- -- -- -- -- -- -- -- --
Raw TAF
KLGA 231940Z 2320/2424 30005KT P6SM BKN060
  FM232100 27007KT P6SM VCSH BKN045
  FM240200 29006KT P6SM BKN060
  FM240500 30006KT P6SM SCT250
  FM241700 25005KT P6SM SCT250


Raw METAR
KLGA 231951Z 31005KT 10SM FEW050 SCT080 BKN140 BKN200 16/06 A2992 RMK AO2 SLP132 T01610056
KLGA 231851Z VRB03KT 10SM SCT050 BKN075 BKN100 16/04 A2993 RMK AO2 SLP134 T01560044
KLGA 231751Z 25005KT 10SM SCT060 BKN075 14/04 A2995 RMK AO2 SLP141 60000 T01440044 10144 20106 58015

METAR Board
Radar Display
Forecast Discussion
For situational awareness. Not to be used for flight planning purposes.